Terminal Aerodrome Forecast
Issued by NWS

Home | Current Version | Previous Version | Text Only | Print | Product List | Glossary On
Versions: 1 2 3 4 5 6 7 8 9 10 11 12 13 14
000
FTUS42 KTAE 221100
TAFECP
TAF
KECP 221124Z 2212/2312 VRB03KT 1SM -RA BR OVC002
     FM221400 10007KT 3SM RA OVC002
     FM221800 10007KT 4SM -RA OVC005
     FM230000 17003KT 2SM -RA BR OVC002=

USA.gov is the U.S. government's official web portal to all federal, state and local government web resources and services.